메인 페이지
METAR-TAF:

METAR-TAF

공항 :

제네바 국제공항

제네바, 스위스

위도: 46-15N, 경도: 006-08E, 고도: 420m

현재 날씨관측

예보는 8분 전, 03:20시(UTC)에 발표되었습니다.
여러 방향의 바람 2kt
온도 16°C
습도 88%
기압 1016 hPa
시정 10km 이상
1500m 미만 상공 구름 및 적란운 없음

METAR: LSGG 170320Z AUTO VRB02KT CAVOK 16/14 Q1016 NOSIG

시각: 05:28 (03:28 UTC)

예보

예보는 1 시간 3분 전, 02:25시(UTC)에 발표되었습니다.
예보 대상 시간: 17일 03시부터 18일 09시까지 (UTC)
여러 방향의 바람 3kt
시정 10km 이상
1500m 미만 상공 구름 및 적란운 없음
전환 중
17일 05시부터 17일 08시까지 (UTC)
시정 10km 이상
고도 6000ft 상공 구름 보통
확률 40% :
일시적
17일 11시부터 17일 18시까지 (UTC)
서북서10kt
고도 5000ft 상공 구름 조금, 타워링 적운.
고도 7000ft 상공 구름 많음
소나기
확률 30% :
일시적
17일 12시부터 17일 15시까지 (UTC)
고도 5000ft 상공 구름 보통, 적란운.
뇌우, 비
전환 중
18일 06시부터 18일 09시까지 (UTC)
북동10kt

TAF: LSGG 170225Z 1703/1809 VRB03KT CAVOK TX27/1715Z TN16/1705Z TN16/1805Z BECMG 1705/1708 9999 SCT060 PROB40 TEMPO 1711/1718 30010KT SHRA FEW050TCU BKN070 PROB30 TEMPO 1712/1715 TSRA SCT050CB BECMG 1806/1809 05010KT

4,000개 이상의 공항 관측 자료 및 예보 (METAR 및 TAF 보고).

지도상에서 검색 가능한 기상관측소가 노란 점과 빨간 점으로 표시되어 있습니다.

기상관측소 명을 보려면 표시 위로 마우스를 이동하세요.

날씨 관측과 예보를 보려면 클릭하세요.

지도 변경 : 확대하려면 엑스 표시가 있는 녹색 버튼, 축소하려면 빼기 표시가 있는 녹색 버튼, 다음 페이지의 지도를 보려면 녹색 화살표를 클릭하세요.


METAR-TAF: